• Join FlightAware (Why Join?)
  • Login
  • US Flag 
11:20AM EST


 

Airport Tracker/Info


-or-


 

Live Flight TrackerFlight Track Log ✈ ASA51 ✈ 02-Aug-2014 ✈ PASC / SCC - PANC

Flight Track Log - Related Links

Times and Time Zones

All times are in EDT time to prevent confusion due to time zone crossing. See the ASA51 flight status page for this flight to view local times or setup timezone preferences in your user account.

Time Position Orientation Groundspeed Altitude Reporting Facility
EDT Latitude Longitude Course Direction KTS MPH feet Rate Location/Type
01:33AM 70.0333 -148.4667 175° South 280 322 7,000  Level Anchorage Center
01:34AM 69.9667 -148.5000 190° South 280 322 10,100 2,400 Climbing Anchorage Center
01:36AM 69.7667 -148.5500 185° South 400 460 14,300 2,340 Climbing Anchorage Center
01:37AM 69.4601 -148.6383 185° South  Level Estimated
01:37AM 69.6500 -148.6000 188° South 410 472 17,300  Level Anchorage Center
01:38AM 69.5333 -148.6333 186° South 430 495 19,600 2,280 Climbing Anchorage Center
01:39AM 69.4167 -148.6667 186° South 460 529 22,000 2,280 Climbing Anchorage Center
01:40AM 69.2833 -148.7167 188° South 470 541 24,200 1,980 Climbing Anchorage Center
01:41AM 69.1333 -148.7500 185° South 490 564 26,000 1,980 Climbing Anchorage Center
01:42AM 69.0000 -148.8000 188° South 490 564 28,300 2,100 Climbing Anchorage Center
01:43AM 68.8667 -148.8333 185° South 490 564 30,300 2,820 Climbing Anchorage Center
01:44AM 68.7500 -148.8667 186° South 460 529 34,100 2,280 Climbing Anchorage Center
01:45AM 68.6167 -148.9167 188° South 430 495 35,000 420 Climbing Anchorage Center
01:46AM 68.5000 -148.9500 186° South 450 518 35,000  Level Anchorage Center
01:47AM 68.3833 -148.9833 186° South 450 518 35,000  Level Anchorage Center
01:48AM 68.2500 -149.0167 185° South 440 506 35,000  Level Anchorage Center
01:49AM 68.1333 -149.0500 186° South 450 518 35,000  Level Anchorage Center
01:50AM 68.0167 -149.0833 186° South 450 518 35,000  Level Anchorage Center
01:51AM 67.8833 -149.1167 185° South 440 506 35,000  Level Anchorage Center
01:52AM 67.7667 -149.1500 186° South 440 506 35,000  Level Anchorage Center
01:53AM 67.6500 -149.1833 186° South 440 506 35,000  Level Anchorage Center
01:54AM 67.5167 -149.2167 185° South 430 495 35,000  Level Anchorage Center
01:55AM 67.4000 -149.2500 186° South 440 506 35,000  Level Anchorage Center
01:56AM 67.2667 -149.2833 186° South 440 506 35,000  Level Anchorage Center
01:57AM 67.1500 -149.3000 183° South 450 518 35,000  Level Anchorage Center
01:58AM 67.0167 -149.3500 188° South 440 506 35,000  Level Anchorage Center
01:59AM 66.9000 -149.3667 183° South 450 518 35,000  Level Anchorage Center
02:00AM 66.7667 -149.4000 186° South 440 506 35,000  Level Anchorage Center
02:02AM 66.5167 -149.4667 186° South 450 518 35,000  Level Anchorage Center
02:03AM 66.4000 -149.5000 187° South 440 506 35,000  Level Anchorage Center
02:04AM 66.2833 -149.5333 187° South 440 506 35,000  Level Anchorage Center
02:05AM 66.1500 -149.5500 183° South 440 506 35,000  Level Anchorage Center
02:06AM 66.0333 -149.5833 187° South 440 506 35,000  Level Anchorage Center
02:07AM 65.9000 -149.6167 186° South 440 506 35,000  Level Anchorage Center
02:08AM 65.7833 -149.6333 183° South 440 506 35,000  Level Anchorage Center
02:09AM 65.6667 -149.6667 187° South 440 506 35,000  Level Anchorage Center
02:10AM 65.5500 -149.7000 187° South 440 506 35,000  Level Anchorage Center
02:11AM 65.4167 -149.7167 183° South 430 495 35,000  Level Anchorage Center
02:12AM 65.3000 -149.7500 187° South 430 495 35,000  Level Anchorage Center
02:13AM 65.1833 -149.7667 183° South 430 495 35,000  Level Anchorage Center
02:14AM 65.0500 -149.8000 186° South 430 495 35,000  Level Anchorage Center
02:15AM 64.9333 -149.8333 187° South 430 495 35,000  Level Anchorage Center
02:16AM 64.8167 -149.8500 183° South 430 495 35,000  Level Anchorage Center
02:17AM 64.7000 -149.8833 187° South 430 495 35,000  Level Anchorage Center
02:18AM 64.5833 -149.9000 184° South 430 495 35,000  Level Anchorage Center
02:19AM 64.4667 -149.9333 187° South 430 495 35,000  Level Anchorage Center
02:20AM 64.3333 -149.9500 183° South 430 495 35,000  Level Anchorage Center
02:21AM 64.2167 -149.9833 187° South 420 483 35,000  Level Anchorage Center
02:22AM 64.1000 -150.0000 184° South 430 495 35,000  Level Anchorage Center
02:23AM 63.9833 -150.0167 184° South 430 495 35,000  Level Anchorage Center
02:24AM 63.8500 -150.0500 186° South 430 495 35,000  Level Anchorage Center
02:25AM 63.7500 -150.0667 184° South 430 495 35,000  Level Anchorage Center
02:26AM 63.6167 -150.1000 186° South 430 495 35,000  Level Anchorage Center
02:27AM 63.5000 -150.1167 184° South 430 495 35,000  Level Anchorage Center
02:28AM 63.3667 -150.1333 183° South 430 495 35,000  Level Anchorage Center
02:29AM 63.2500 -150.1667 187° South 430 495 35,000  Level Anchorage Center
02:30AM 63.1500 -150.1833 184° South 430 495 35,000  Level Anchorage Center
02:31AM 63.0167 -150.2167 186° South 420 483 35,000  Level Anchorage Center
02:32AM 62.9000 -150.2333 184° South 430 495 35,000  Level Anchorage Center
02:33AM 62.7667 -150.2500 183° South 430 495 35,000 -1,080 Level Anchorage Center
02:34AM 62.6500 -150.2833 187° South 430 495 32,900 -3,240 Descending Anchorage Center
02:35AM 62.5333 -150.3000 184° South 440 506 28,600 -3,600 Descending Anchorage Center
02:36AM 62.4167 -150.3167 184° South 430 495 25,700 -2,880 Descending Anchorage Center
02:37AM 62.3000 -150.3500 188° South 410 472 22,800 -2,700 Descending Anchorage Center
02:38AM 62.1833 -150.3667 184° South 390 449 20,300 -2,580 Descending Anchorage Center
02:39AM 62.0833 -150.3833 184° South 370 426 17,600 -2,580 Descending Anchorage Center
02:40AM 61.9833 -150.4000 184° South 360 414 15,200 -2,400 Descending Anchorage Center
02:42AM 61.8193 -150.4264 183° South  Level FlightAware Approximate
02:49AM 61.1741 -149.9982 154° Southeast  Level Estimated
02:50AM 61.1741 -149.9982 154° Southeast  Level Estimated
02:51AM 61.1741 -149.9982 154° Southeast  Level Estimated
02:52AM 61.1741 -149.9982 154° Southeast  Level Estimated
02:53AM 61.1741 -149.9982 154° Southeast  Level Estimated
02:54AM 61.1741 -149.9982 154° Southeast  Level Estimated
02:55AM 61.1741 -149.9982 154° Southeast  Level Estimated
02:56AM 61.1741 -149.9982 154° Southeast  Level Estimated
02:57AM 61.1741 -149.9982 154° Southeast  Level Estimated
02:58AM 61.1741 -149.9982 154° Southeast  Level Estimated
02:59AM 61.1741 -149.9982 154° Southeast  Level Estimated
03:00AM 61.1741 -149.9982 154° Southeast  Level Estimated
03:01AM 61.1741 -149.9982 154° Southeast  Level Estimated
03:02AM 61.1741 -149.9982 154° Southeast  Level Estimated
03:03AM 61.1741 -149.9982 154° Southeast  Level Estimated
03:04AM 61.1741 -149.9982 154° Southeast  Level Estimated
03:05AM 61.1741 -149.9982 154° Southeast  Level Estimated
03:06AM 61.1741 -149.9982 154° Southeast  Level Estimated
03:07AM 61.1741 -149.9982 154° Southeast  Level Estimated